sensor_id;sensor_type;location;lat;lon;timestamp;temperature;humidity
55828;DHT22;41758;51.992;5.890;2024-03-06T00:01:05;12.50;65.20
55828;DHT22;41758;51.992;5.890;2024-03-06T00:03:31;12.50;65.20
55828;DHT22;41758;51.992;5.890;2024-03-06T00:05:56;12.50;65.30
55828;DHT22;41758;51.992;5.890;2024-03-06T00:08:22;12.50;65.30
55828;DHT22;41758;51.992;5.890;2024-03-06T00:10:48;12.50;65.30
55828;DHT22;41758;51.992;5.890;2024-03-06T00:13:13;12.50;65.30
55828;DHT22;41758;51.992;5.890;2024-03-06T00:15:39;12.50;65.30
55828;DHT22;41758;51.992;5.890;2024-03-06T00:18:05;12.50;65.20
55828;DHT22;41758;51.992;5.890;2024-03-06T00:20:31;12.40;65.20
55828;DHT22;41758;51.992;5.890;2024-03-06T00:22:57;12.40;65.20
55828;DHT22;41758;51.992;5.890;2024-03-06T00:25:24;12.30;65.20
55828;DHT22;41758;51.992;5.890;2024-03-06T00:27:50;12.30;65.20
55828;DHT22;41758;51.992;5.890;2024-03-06T00:30:16;12.30;65.20
55828;DHT22;41758;51.992;5.890;2024-03-06T00:32:42;12.30;65.20
55828;DHT22;41758;51.992;5.890;2024-03-06T00:35:07;12.30;65.20
55828;DHT22;41758;51.992;5.890;2024-03-06T00:37:33;12.20;65.20
55828;DHT22;41758;51.992;5.890;2024-03-06T00:39:59;12.20;65.20
55828;DHT22;41758;51.992;5.890;2024-03-06T00:42:25;12.20;65.20
55828;DHT22;41758;51.992;5.890;2024-03-06T00:44:50;12.10;65.10
55828;DHT22;41758;51.992;5.890;2024-03-06T00:47:16;12.10;65.10
55828;DHT22;41758;51.992;5.890;2024-03-06T00:49:42;12.10;65.10
55828;DHT22;41758;51.992;5.890;2024-03-06T00:52:07;12.00;65.00
55828;DHT22;41758;51.992;5.890;2024-03-06T00:54:35;11.90;65.00
55828;DHT22;41758;51.992;5.890;2024-03-06T00:57:00;11.90;65.00
55828;DHT22;41758;51.992;5.890;2024-03-06T00:59:27;11.80;64.90
55828;DHT22;41758;51.992;5.890;2024-03-06T01:01:53;11.70;64.90
55828;DHT22;41758;51.992;5.890;2024-03-06T01:04:22;11.70;65.00
55828;DHT22;41758;51.992;5.890;2024-03-06T01:06:48;11.60;65.00
55828;DHT22;41758;51.992;5.890;2024-03-06T01:09:13;11.60;65.00
55828;DHT22;41758;51.992;5.890;2024-03-06T01:11:39;11.50;65.10
55828;DHT22;41758;51.992;5.890;2024-03-06T01:14:05;11.40;65.10
55828;DHT22;41758;51.992;5.890;2024-03-06T01:16:31;11.40;65.20
55828;DHT22;41758;51.992;5.890;2024-03-06T01:18:56;11.40;65.20
55828;DHT22;41758;51.992;5.890;2024-03-06T01:21:22;11.30;65.20
55828;DHT22;41758;51.992;5.890;2024-03-06T01:23:48;11.30;65.30
55828;DHT22;41758;51.992;5.890;2024-03-06T01:26:13;11.30;65.40
55828;DHT22;41758;51.992;5.890;2024-03-06T01:28:39;11.30;65.40
55828;DHT22;41758;51.992;5.890;2024-03-06T01:31:05;11.20;65.50
55828;DHT22;41758;51.992;5.890;2024-03-06T01:33:30;11.20;65.40
55828;DHT22;41758;51.992;5.890;2024-03-06T01:35:56;11.20;65.40
55828;DHT22;41758;51.992;5.890;2024-03-06T01:38:22;11.10;65.40
55828;DHT22;41758;51.992;5.890;2024-03-06T01:40:47;11.10;65.40
55828;DHT22;41758;51.992;5.890;2024-03-06T01:43:24;11.10;65.40
55828;DHT22;41758;51.992;5.890;2024-03-06T01:45:50;11.10;65.40
55828;DHT22;41758;51.992;5.890;2024-03-06T01:48:18;11.00;65.40
55828;DHT22;41758;51.992;5.890;2024-03-06T01:50:46;11.00;65.40
55828;DHT22;41758;51.992;5.890;2024-03-06T01:53:13;10.90;65.40
55828;DHT22;41758;51.992;5.890;2024-03-06T01:55:39;10.90;65.30
55828;DHT22;41758;51.992;5.890;2024-03-06T01:58:06;10.80;65.30
55828;DHT22;41758;51.992;5.890;2024-03-06T02:00:32;10.80;65.30
55828;DHT22;41758;51.992;5.890;2024-03-06T02:02:59;10.80;65.30
55828;DHT22;41758;51.992;5.890;2024-03-06T02:05:27;10.70;65.20
55828;DHT22;41758;51.992;5.890;2024-03-06T02:07:54;10.70;65.30
55828;DHT22;41758;51.992;5.890;2024-03-06T02:10:19;10.60;65.30
55828;DHT22;41758;51.992;5.890;2024-03-06T02:12:45;10.60;65.40
55828;DHT22;41758;51.992;5.890;2024-03-06T02:15:11;10.60;65.40
55828;DHT22;41758;51.992;5.890;2024-03-06T02:17:38;10.50;65.40
55828;DHT22;41758;51.992;5.890;2024-03-06T02:20:04;10.50;65.40
55828;DHT22;41758;51.992;5.890;2024-03-06T02:22:32;10.50;65.40
55828;DHT22;41758;51.992;5.890;2024-03-06T02:24:58;10.40;65.40
55828;DHT22;41758;51.992;5.890;2024-03-06T02:27:24;10.40;65.50
55828;DHT22;41758;51.992;5.890;2024-03-06T02:29:49;10.40;65.50
55828;DHT22;41758;51.992;5.890;2024-03-06T02:32:15;10.40;65.50
55828;DHT22;41758;51.992;5.890;2024-03-06T02:34:43;10.30;65.50
55828;DHT22;41758;51.992;5.890;2024-03-06T02:37:09;10.30;65.50
55828;DHT22;41758;51.992;5.890;2024-03-06T02:39:35;10.30;65.50
55828;DHT22;41758;51.992;5.890;2024-03-06T02:42:01;10.30;65.40
55828;DHT22;41758;51.992;5.890;2024-03-06T02:44:26;10.20;65.40
55828;DHT22;41758;51.992;5.890;2024-03-06T02:46:52;10.20;65.40
55828;DHT22;41758;51.992;5.890;2024-03-06T02:49:18;10.10;65.40
55828;DHT22;41758;51.992;5.890;2024-03-06T02:51:44;10.10;65.40
55828;DHT22;41758;51.992;5.890;2024-03-06T02:54:10;10.10;65.40
55828;DHT22;41758;51.992;5.890;2024-03-06T02:56:36;10.00;65.40
55828;DHT22;41758;51.992;5.890;2024-03-06T02:59:01;10.00;65.50
55828;DHT22;41758;51.992;5.890;2024-03-06T03:01:29;10.00;65.40
55828;DHT22;41758;51.992;5.890;2024-03-06T03:03:55;10.00;65.40
55828;DHT22;41758;51.992;5.890;2024-03-06T03:06:21;9.90;65.40
55828;DHT22;41758;51.992;5.890;2024-03-06T03:08:49;9.90;65.50
55828;DHT22;41758;51.992;5.890;2024-03-06T03:11:15;9.80;65.50
55828;DHT22;41758;51.992;5.890;2024-03-06T03:13:41;9.80;65.50
55828;DHT22;41758;51.992;5.890;2024-03-06T03:16:18;9.80;65.60
55828;DHT22;41758;51.992;5.890;2024-03-06T03:18:44;9.80;65.60
55828;DHT22;41758;51.992;5.890;2024-03-06T03:21:10;9.80;65.60
55828;DHT22;41758;51.992;5.890;2024-03-06T03:23:37;9.80;65.60
55828;DHT22;41758;51.992;5.890;2024-03-06T03:26:03;9.70;65.60
55828;DHT22;41758;51.992;5.890;2024-03-06T03:28:29;9.80;65.60
55828;DHT22;41758;51.992;5.890;2024-03-06T03:30:55;9.70;65.60
55828;DHT22;41758;51.992;5.890;2024-03-06T03:33:22;9.70;65.60
55828;DHT22;41758;51.992;5.890;2024-03-06T03:35:48;9.60;65.50
55828;DHT22;41758;51.992;5.890;2024-03-06T03:38:14;9.60;65.50
55828;DHT22;41758;51.992;5.890;2024-03-06T03:40:39;9.60;65.50
55828;DHT22;41758;51.992;5.890;2024-03-06T03:43:05;9.60;65.50
55828;DHT22;41758;51.992;5.890;2024-03-06T03:45:34;9.50;65.60
55828;DHT22;41758;51.992;5.890;2024-03-06T03:48:01;9.50;65.70
55828;DHT22;41758;51.992;5.890;2024-03-06T03:50:28;9.50;65.70
55828;DHT22;41758;51.992;5.890;2024-03-06T03:52:55;9.50;65.70
55828;DHT22;41758;51.992;5.890;2024-03-06T03:55:24;9.40;65.80
55828;DHT22;41758;51.992;5.890;2024-03-06T03:57:50;9.40;65.80
55828;DHT22;41758;51.992;5.890;2024-03-06T04:00:18;9.40;65.90
55828;DHT22;41758;51.992;5.890;2024-03-06T04:02:43;9.50;66.00
55828;DHT22;41758;51.992;5.890;2024-03-06T04:05:09;9.40;65.90
55828;DHT22;41758;51.992;5.890;2024-03-06T04:07:36;9.50;65.90
55828;DHT22;41758;51.992;5.890;2024-03-06T04:10:02;9.50;65.80
55828;DHT22;41758;51.992;5.890;2024-03-06T04:12:28;9.50;65.80
55828;DHT22;41758;51.992;5.890;2024-03-06T04:14:54;9.40;65.80
55828;DHT22;41758;51.992;5.890;2024-03-06T04:17:20;9.40;65.70
55828;DHT22;41758;51.992;5.890;2024-03-06T04:19:45;9.40;65.70
55828;DHT22;41758;51.992;5.890;2024-03-06T04:22:14;9.40;65.70
55828;DHT22;41758;51.992;5.890;2024-03-06T04:24:42;9.30;65.80
55828;DHT22;41758;51.992;5.890;2024-03-06T04:27:08;9.40;65.80
55828;DHT22;41758;51.992;5.890;2024-03-06T04:29:34;9.30;65.80
55828;DHT22;41758;51.992;5.890;2024-03-06T04:31:59;9.30;65.70
55828;DHT22;41758;51.992;5.890;2024-03-06T04:34:25;9.30;65.70
55828;DHT22;41758;51.992;5.890;2024-03-06T04:36:51;9.30;65.70
55828;DHT22;41758;51.992;5.890;2024-03-06T04:39:16;9.20;65.80
55828;DHT22;41758;51.992;5.890;2024-03-06T04:41:42;9.30;65.90
55828;DHT22;41758;51.992;5.890;2024-03-06T04:44:07;9.30;65.90
55828;DHT22;41758;51.992;5.890;2024-03-06T04:46:33;9.20;66.00
55828;DHT22;41758;51.992;5.890;2024-03-06T04:48:59;9.30;66.00
55828;DHT22;41758;51.992;5.890;2024-03-06T04:51:24;9.30;66.00
55828;DHT22;41758;51.992;5.890;2024-03-06T04:53:50;9.30;66.00
55828;DHT22;41758;51.992;5.890;2024-03-06T04:56:16;9.30;66.10
55828;DHT22;41758;51.992;5.890;2024-03-06T04:58:44;9.30;66.10
55828;DHT22;41758;51.992;5.890;2024-03-06T05:01:12;9.30;66.20
55828;DHT22;41758;51.992;5.890;2024-03-06T05:03:38;9.30;66.20
55828;DHT22;41758;51.992;5.890;2024-03-06T05:06:07;9.40;66.20
55828;DHT22;41758;51.992;5.890;2024-03-06T05:08:33;9.40;66.20
55828;DHT22;41758;51.992;5.890;2024-03-06T05:11:00;9.40;66.20
55828;DHT22;41758;51.992;5.890;2024-03-06T05:13:26;9.40;66.00
55828;DHT22;41758;51.992;5.890;2024-03-06T05:15:52;9.40;65.90
55828;DHT22;41758;51.992;5.890;2024-03-06T05:18:19;9.30;65.90
55828;DHT22;41758;51.992;5.890;2024-03-06T05:20:45;9.40;65.90
55828;DHT22;41758;51.992;5.890;2024-03-06T05:23:11;9.30;65.90
55828;DHT22;41758;51.992;5.890;2024-03-06T05:25:38;9.30;66.00
55828;DHT22;41758;51.992;5.890;2024-03-06T05:28:04;9.30;66.00
55828;DHT22;41758;51.992;5.890;2024-03-06T05:30:30;9.30;66.10
55828;DHT22;41758;51.992;5.890;2024-03-06T05:32:56;9.40;66.10
55828;DHT22;41758;51.992;5.890;2024-03-06T05:35:21;9.40;66.10
55828;DHT22;41758;51.992;5.890;2024-03-06T05:37:47;9.40;66.10
55828;DHT22;41758;51.992;5.890;2024-03-06T05:40:13;9.40;66.00
55828;DHT22;41758;51.992;5.890;2024-03-06T05:42:38;9.40;66.00
55828;DHT22;41758;51.992;5.890;2024-03-06T05:45:04;9.40;66.00
55828;DHT22;41758;51.992;5.890;2024-03-06T05:47:36;9.30;65.90
55828;DHT22;41758;51.992;5.890;2024-03-06T05:50:02;9.30;65.90
55828;DHT22;41758;51.992;5.890;2024-03-06T05:52:31;9.30;65.80
55828;DHT22;41758;51.992;5.890;2024-03-06T05:54:57;9.30;65.80
55828;DHT22;41758;51.992;5.890;2024-03-06T05:57:22;9.20;65.70
55828;DHT22;41758;51.992;5.890;2024-03-06T05:59:48;9.20;65.80
55828;DHT22;41758;51.992;5.890;2024-03-06T06:02:14;9.20;65.80
55828;DHT22;41758;51.992;5.890;2024-03-06T06:04:42;9.20;65.80
55828;DHT22;41758;51.992;5.890;2024-03-06T06:07:07;9.20;65.90
55828;DHT22;41758;51.992;5.890;2024-03-06T06:09:33;9.10;66.00
55828;DHT22;41758;51.992;5.890;2024-03-06T06:11:59;9.20;66.00
55828;DHT22;41758;51.992;5.890;2024-03-06T06:14:25;9.10;65.90
55828;DHT22;41758;51.992;5.890;2024-03-06T06:16:52;9.10;65.90
55828;DHT22;41758;51.992;5.890;2024-03-06T06:19:18;9.10;65.90
55828;DHT22;41758;51.992;5.890;2024-03-06T06:21:44;9.10;65.90
55828;DHT22;41758;51.992;5.890;2024-03-06T06:24:09;9.10;65.90
55828;DHT22;41758;51.992;5.890;2024-03-06T06:26:35;9.10;66.00
55828;DHT22;41758;51.992;5.890;2024-03-06T06:29:01;9.10;66.10
55828;DHT22;41758;51.992;5.890;2024-03-06T06:31:26;9.10;66.10
55828;DHT22;41758;51.992;5.890;2024-03-06T06:33:53;9.10;66.20
55828;DHT22;41758;51.992;5.890;2024-03-06T06:36:19;9.10;66.20
55828;DHT22;41758;51.992;5.890;2024-03-06T06:38:46;9.10;66.20
55828;DHT22;41758;51.992;5.890;2024-03-06T06:41:12;9.10;66.20
55828;DHT22;41758;51.992;5.890;2024-03-06T06:43:39;9.10;66.40
55828;DHT22;41758;51.992;5.890;2024-03-06T06:46:07;9.20;66.50
55828;DHT22;41758;51.992;5.890;2024-03-06T06:48:33;9.20;66.50
55828;DHT22;41758;51.992;5.890;2024-03-06T06:51:02;9.30;66.60
55828;DHT22;41758;51.992;5.890;2024-03-06T06:53:31;9.30;66.60
55828;DHT22;41758;51.992;5.890;2024-03-06T06:55:57;9.30;66.60
55828;DHT22;41758;51.992;5.890;2024-03-06T06:58:23;9.40;66.60
55828;DHT22;41758;51.992;5.890;2024-03-06T07:00:49;9.40;66.60
55828;DHT22;41758;51.992;5.890;2024-03-06T07:03:15;9.40;66.60
55828;DHT22;41758;51.992;5.890;2024-03-06T07:05:41;9.50;66.60
55828;DHT22;41758;51.992;5.890;2024-03-06T07:08:08;9.50;66.60
55828;DHT22;41758;51.992;5.890;2024-03-06T07:10:33;9.60;66.60
55828;DHT22;41758;51.992;5.890;2024-03-06T07:13:01;9.60;66.60
55828;DHT22;41758;51.992;5.890;2024-03-06T07:15:28;9.70;66.70
55828;DHT22;41758;51.992;5.890;2024-03-06T07:17:54;9.70;66.70
55828;DHT22;41758;51.992;5.890;2024-03-06T07:20:20;9.80;66.70
55828;DHT22;41758;51.992;5.890;2024-03-06T07:22:45;9.80;66.70
55828;DHT22;41758;51.992;5.890;2024-03-06T07:25:12;9.90;66.80
55828;DHT22;41758;51.992;5.890;2024-03-06T07:27:37;9.90;66.90
55828;DHT22;41758;51.992;5.890;2024-03-06T07:30:03;10.00;66.90
55828;DHT22;41758;51.992;5.890;2024-03-06T07:32:29;10.10;67.00
55828;DHT22;41758;51.992;5.890;2024-03-06T07:34:55;10.20;67.00
55828;DHT22;41758;51.992;5.890;2024-03-06T07:37:20;10.30;67.10
55828;DHT22;41758;51.992;5.890;2024-03-06T07:39:46;10.30;67.10
55828;DHT22;41758;51.992;5.890;2024-03-06T07:42:12;10.40;67.20
55828;DHT22;41758;51.992;5.890;2024-03-06T07:44:38;10.50;67.10
55828;DHT22;41758;51.992;5.890;2024-03-06T07:47:04;10.60;67.10
55828;DHT22;41758;51.992;5.890;2024-03-06T07:49:29;10.70;67.10
55828;DHT22;41758;51.992;5.890;2024-03-06T07:51:57;10.80;67.00
55828;DHT22;41758;51.992;5.890;2024-03-06T07:54:23;10.80;66.90
55828;DHT22;41758;51.992;5.890;2024-03-06T07:56:49;10.90;66.80
55828;DHT22;41758;51.992;5.890;2024-03-06T07:59:14;10.90;66.70
55828;DHT22;41758;51.992;5.890;2024-03-06T08:01:42;11.00;66.60
55828;DHT22;41758;51.992;5.890;2024-03-06T08:04:07;11.00;66.40
55828;DHT22;41758;51.992;5.890;2024-03-06T08:06:33;11.00;66.20
55828;DHT22;41758;51.992;5.890;2024-03-06T08:08:59;10.90;66.40
55828;DHT22;41758;51.992;5.890;2024-03-06T08:11:25;11.00;66.50
55828;DHT22;41758;51.992;5.890;2024-03-06T08:13:57;11.00;66.40
55828;DHT22;41758;51.992;5.890;2024-03-06T08:16:23;11.00;66.30
55828;DHT22;41758;51.992;5.890;2024-03-06T08:18:49;10.90;66.30
55828;DHT22;41758;51.992;5.890;2024-03-06T08:21:14;10.90;66.50
55828;DHT22;41758;51.992;5.890;2024-03-06T08:23:40;11.00;66.70
55828;DHT22;41758;51.992;5.890;2024-03-06T08:26:06;11.00;66.70
55828;DHT22;41758;51.992;5.890;2024-03-06T08:28:31;11.10;66.70
55828;DHT22;41758;51.992;5.890;2024-03-06T08:30:57;11.10;66.90
55828;DHT22;41758;51.992;5.890;2024-03-06T08:33:23;11.20;67.00
55828;DHT22;41758;51.992;5.890;2024-03-06T08:35:50;11.30;66.80
55828;DHT22;41758;51.992;5.890;2024-03-06T08:38:16;11.30;66.80
55828;DHT22;41758;51.992;5.890;2024-03-06T08:40:42;11.40;67.00
55828;DHT22;41758;51.992;5.890;2024-03-06T08:43:11;11.50;67.10
55828;DHT22;41758;51.992;5.890;2024-03-06T08:45:38;11.50;67.10
55828;DHT22;41758;51.992;5.890;2024-03-06T08:48:04;11.60;67.00
55828;DHT22;41758;51.992;5.890;2024-03-06T08:50:31;11.70;67.10
55828;DHT22;41758;51.992;5.890;2024-03-06T08:52:57;11.80;67.10
55828;DHT22;41758;51.992;5.890;2024-03-06T08:55:22;11.80;67.10
55828;DHT22;41758;51.992;5.890;2024-03-06T08:57:48;11.90;67.00
55828;DHT22;41758;51.992;5.890;2024-03-06T09:00:16;12.00;66.80
55828;DHT22;41758;51.992;5.890;2024-03-06T09:02:43;12.00;66.50
55828;DHT22;41758;51.992;5.890;2024-03-06T09:05:09;11.90;66.40
55828;DHT22;41758;51.992;5.890;2024-03-06T09:07:36;12.00;66.70
55828;DHT22;41758;51.992;5.890;2024-03-06T09:10:07;12.10;66.80
55828;DHT22;41758;51.992;5.890;2024-03-06T09:12:33;12.00;66.70
55828;DHT22;41758;51.992;5.890;2024-03-06T09:14:59;12.10;66.80
55828;DHT22;41758;51.992;5.890;2024-03-06T09:17:27;12.10;66.70
55828;DHT22;41758;51.992;5.890;2024-03-06T09:19:53;12.10;66.70
55828;DHT22;41758;51.992;5.890;2024-03-06T09:22:19;12.10;66.90
55828;DHT22;41758;51.992;5.890;2024-03-06T09:24:45;12.20;67.10
55828;DHT22;41758;51.992;5.890;2024-03-06T09:27:11;12.30;67.30
55828;DHT22;41758;51.992;5.890;2024-03-06T09:29:37;12.40;67.30
55828;DHT22;41758;51.992;5.890;2024-03-06T09:32:03;12.40;67.00
55828;DHT22;41758;51.992;5.890;2024-03-06T09:34:29;12.50;66.90
55828;DHT22;41758;51.992;5.890;2024-03-06T09:36:54;12.40;66.60
55828;DHT22;41758;51.992;5.890;2024-03-06T09:39:21;12.50;66.60
55828;DHT22;41758;51.992;5.890;2024-03-06T09:41:48;12.50;66.70
55828;DHT22;41758;51.992;5.890;2024-03-06T09:44:18;12.40;66.80
55828;DHT22;41758;51.992;5.890;2024-03-06T09:46:47;12.50;67.00
55828;DHT22;41758;51.992;5.890;2024-03-06T09:49:15;12.60;67.20
55828;DHT22;41758;51.992;5.890;2024-03-06T09:51:48;12.80;67.40
55828;DHT22;41758;51.992;5.890;2024-03-06T09:54:19;12.80;67.40
55828;DHT22;41758;51.992;5.890;2024-03-06T09:56:46;13.00;67.40
55828;DHT22;41758;51.992;5.890;2024-03-06T09:59:12;13.10;67.40
55828;DHT22;41758;51.992;5.890;2024-03-06T10:01:55;13.20;67.40
55828;DHT22;41758;51.992;5.890;2024-03-06T10:04:22;13.30;67.30
55828;DHT22;41758;51.992;5.890;2024-03-06T10:06:48;13.40;67.30
55828;DHT22;41758;51.992;5.890;2024-03-06T10:09:18;13.50;66.90
55828;DHT22;41758;51.992;5.890;2024-03-06T10:11:44;13.50;66.70
55828;DHT22;41758;51.992;5.890;2024-03-06T10:14:10;13.50;66.70
55828;DHT22;41758;51.992;5.890;2024-03-06T10:16:36;13.60;66.80
55828;DHT22;41758;51.992;5.890;2024-03-06T10:19:16;13.60;66.90
55828;DHT22;41758;51.992;5.890;2024-03-06T10:21:47;13.70;66.80
55828;DHT22;41758;51.992;5.890;2024-03-06T10:24:20;13.70;66.70
55828;DHT22;41758;51.992;5.890;2024-03-06T10:26:46;13.80;66.70
55828;DHT22;41758;51.992;5.890;2024-03-06T10:29:16;13.80;66.60
55828;DHT22;41758;51.992;5.890;2024-03-06T10:31:51;13.80;66.70
55828;DHT22;41758;51.992;5.890;2024-03-06T10:34:16;13.90;66.70
55828;DHT22;41758;51.992;5.890;2024-03-06T10:36:43;14.00;66.60
55828;DHT22;41758;51.992;5.890;2024-03-06T10:39:11;14.00;66.50
55828;DHT22;41758;51.992;5.890;2024-03-06T10:41:40;14.10;66.40
55828;DHT22;41758;51.992;5.890;2024-03-06T10:44:11;14.10;66.50
55828;DHT22;41758;51.992;5.890;2024-03-06T10:46:42;14.20;66.70
55828;DHT22;41758;51.992;5.890;2024-03-06T10:49:09;14.30;66.80
55828;DHT22;41758;51.992;5.890;2024-03-06T10:51:39;14.40;66.70
55828;DHT22;41758;51.992;5.890;2024-03-06T10:54:08;14.50;66.50
55828;DHT22;41758;51.992;5.890;2024-03-06T10:56:34;14.60;66.40
55828;DHT22;41758;51.992;5.890;2024-03-06T10:59:01;14.60;66.50
55828;DHT22;41758;51.992;5.890;2024-03-06T11:01:29;14.80;66.60
55828;DHT22;41758;51.992;5.890;2024-03-06T11:04:01;14.80;66.70
55828;DHT22;41758;51.992;5.890;2024-03-06T11:06:27;15.00;66.70
55828;DHT22;41758;51.992;5.890;2024-03-06T11:08:53;15.10;66.90
55828;DHT22;41758;51.992;5.890;2024-03-06T11:11:19;15.30;67.00
55828;DHT22;41758;51.992;5.890;2024-03-06T11:13:48;15.50;67.00
55828;DHT22;41758;51.992;5.890;2024-03-06T11:16:14;15.60;66.60
55828;DHT22;41758;51.992;5.890;2024-03-06T11:24:31;15.90;66.10
55828;DHT22;41758;51.992;5.890;2024-03-06T11:27:09;15.90;65.60
55828;DHT22;41758;51.992;5.890;2024-03-06T11:30:09;15.90;65.90
55828;DHT22;41758;51.992;5.890;2024-03-06T11:32:58;15.90;65.90
55828;DHT22;41758;51.992;5.890;2024-03-06T11:35:24;15.90;65.90
55828;DHT22;41758;51.992;5.890;2024-03-06T11:37:50;15.90;66.10
55828;DHT22;41758;51.992;5.890;2024-03-06T11:40:23;16.10;66.50
55828;DHT22;41758;51.992;5.890;2024-03-06T11:42:52;16.30;67.40
55828;DHT22;41758;51.992;5.890;2024-03-06T11:45:19;16.50;67.80
55828;DHT22;41758;51.992;5.890;2024-03-06T11:48:00;16.80;67.70
55828;DHT22;41758;51.992;5.890;2024-03-06T11:50:26;16.80;66.60
55828;DHT22;41758;51.992;5.890;2024-03-06T11:52:53;16.80;66.30
55828;DHT22;41758;51.992;5.890;2024-03-06T11:55:21;16.80;65.80
55828;DHT22;41758;51.992;5.890;2024-03-06T11:57:47;16.60;65.60
55828;DHT22;41758;51.992;5.890;2024-03-06T12:00:14;16.60;65.90
55828;DHT22;41758;51.992;5.890;2024-03-06T12:02:40;16.60;66.70
55828;DHT22;41758;51.992;5.890;2024-03-06T12:05:07;16.80;67.30
55828;DHT22;41758;51.992;5.890;2024-03-06T12:07:49;17.20;67.80
55828;DHT22;41758;51.992;5.890;2024-03-06T12:10:16;17.60;67.80
55828;DHT22;41758;51.992;5.890;2024-03-06T12:12:42;17.90;66.90
55828;DHT22;41758;51.992;5.890;2024-03-06T12:15:12;18.10;65.90
55828;DHT22;41758;51.992;5.890;2024-03-06T12:17:47;18.10;65.20
55828;DHT22;41758;51.992;5.890;2024-03-06T12:20:14;18.00;64.60
55828;DHT22;41758;51.992;5.890;2024-03-06T12:22:48;17.80;64.40
55828;DHT22;41758;51.992;5.890;2024-03-06T12:25:24;17.80;64.70
55828;DHT22;41758;51.992;5.890;2024-03-06T12:27:51;17.70;64.70
55828;DHT22;41758;51.992;5.890;2024-03-06T12:30:18;17.70;65.20
55828;DHT22;41758;51.992;5.890;2024-03-06T12:33:00;17.70;65.10
55828;DHT22;41758;51.992;5.890;2024-03-06T12:35:30;17.70;64.80
55828;DHT22;41758;51.992;5.890;2024-03-06T12:37:56;17.60;64.60
55828;DHT22;41758;51.992;5.890;2024-03-06T12:40:22;17.50;64.80
55828;DHT22;41758;51.992;5.890;2024-03-06T12:42:48;17.70;65.90
55828;DHT22;41758;51.992;5.890;2024-03-06T12:45:20;18.10;66.40
55828;DHT22;41758;51.992;5.890;2024-03-06T12:47:47;18.40;66.00
55828;DHT22;41758;51.992;5.890;2024-03-06T12:50:15;18.60;66.00
55828;DHT22;41758;51.992;5.890;2024-03-06T12:52:41;19.00;66.30
55828;DHT22;41758;51.992;5.890;2024-03-06T12:55:10;19.10;65.30
55828;DHT22;41758;51.992;5.890;2024-03-06T12:57:36;19.20;65.00
55828;DHT22;41758;51.992;5.890;2024-03-06T13:00:02;19.30;65.20
55828;DHT22;41758;51.992;5.890;2024-03-06T13:02:28;19.40;65.10
55828;DHT22;41758;51.992;5.890;2024-03-06T13:04:54;19.80;65.30
55828;DHT22;41758;51.992;5.890;2024-03-06T13:07:19;20.30;65.40
55828;DHT22;41758;51.992;5.890;2024-03-06T13:09:45;20.50;64.10
55828;DHT22;41758;51.992;5.890;2024-03-06T13:12:11;20.70;64.50
55828;DHT22;41758;51.992;5.890;2024-03-06T13:14:37;20.90;64.20
55828;DHT22;41758;51.992;5.890;2024-03-06T13:17:02;21.10;63.90
55828;DHT22;41758;51.992;5.890;2024-03-06T13:19:28;21.50;63.40
55828;DHT22;41758;51.992;5.890;2024-03-06T13:21:54;21.80;63.00
55828;DHT22;41758;51.992;5.890;2024-03-06T13:24:20;22.00;62.00
55828;DHT22;41758;51.992;5.890;2024-03-06T13:26:46;21.90;61.00
55828;DHT22;41758;51.992;5.890;2024-03-06T13:29:13;21.60;60.20
55828;DHT22;41758;51.992;5.890;2024-03-06T13:31:38;21.40;60.80
55828;DHT22;41758;51.992;5.890;2024-03-06T13:34:04;21.40;61.30
55828;DHT22;41758;51.992;5.890;2024-03-06T13:36:30;21.50;61.40
55828;DHT22;41758;51.992;5.890;2024-03-06T13:38:56;21.70;61.30
55828;DHT22;41758;51.992;5.890;2024-03-06T13:41:23;21.70;61.00
55828;DHT22;41758;51.992;5.890;2024-03-06T13:43:48;21.70;61.00
55828;DHT22;41758;51.992;5.890;2024-03-06T13:46:14;21.70;61.00
55828;DHT22;41758;51.992;5.890;2024-03-06T13:48:40;21.60;61.00
55828;DHT22;41758;51.992;5.890;2024-03-06T13:51:06;21.60;60.90
55828;DHT22;41758;51.992;5.890;2024-03-06T13:53:31;21.60;61.00
55828;DHT22;41758;51.992;5.890;2024-03-06T13:55:57;21.50;60.90
55828;DHT22;41758;51.992;5.890;2024-03-06T13:58:23;21.30;60.60
55828;DHT22;41758;51.992;5.890;2024-03-06T14:00:49;21.10;60.70
55828;DHT22;41758;51.992;5.890;2024-03-06T14:03:15;20.80;61.00
55828;DHT22;41758;51.992;5.890;2024-03-06T14:05:40;20.70;61.20
55828;DHT22;41758;51.992;5.890;2024-03-06T14:08:06;20.40;61.40
55828;DHT22;41758;51.992;5.890;2024-03-06T14:10:32;20.30;61.70
55828;DHT22;41758;51.992;5.890;2024-03-06T14:13:02;20.10;61.70
55828;DHT22;41758;51.992;5.890;2024-03-06T14:15:28;19.90;61.80
55828;DHT22;41758;51.992;5.890;2024-03-06T14:17:54;19.70;62.00
55828;DHT22;41758;51.992;5.890;2024-03-06T14:20:20;19.50;62.20
55828;DHT22;41758;51.992;5.890;2024-03-06T14:22:46;19.40;62.50
55828;DHT22;41758;51.992;5.890;2024-03-06T14:25:12;19.30;62.60
55828;DHT22;41758;51.992;5.890;2024-03-06T14:27:38;19.20;62.90
55828;DHT22;41758;51.992;5.890;2024-03-06T14:30:05;19.20;63.20
55828;DHT22;41758;51.992;5.890;2024-03-06T14:32:33;19.20;63.40
55828;DHT22;41758;51.992;5.890;2024-03-06T14:34:59;19.20;63.30
55828;DHT22;41758;51.992;5.890;2024-03-06T14:37:24;19.20;63.30
55828;DHT22;41758;51.992;5.890;2024-03-06T14:39:50;19.10;63.20
55828;DHT22;41758;51.992;5.890;2024-03-06T14:42:18;19.00;63.10
55828;DHT22;41758;51.992;5.890;2024-03-06T14:44:44;18.90;63.10
55828;DHT22;41758;51.992;5.890;2024-03-06T14:47:10;18.80;63.20
55828;DHT22;41758;51.992;5.890;2024-03-06T14:49:36;18.70;63.30
55828;DHT22;41758;51.992;5.890;2024-03-06T14:52:02;18.60;63.40
55828;DHT22;41758;51.992;5.890;2024-03-06T14:54:32;18.60;63.60
55828;DHT22;41758;51.992;5.890;2024-03-06T14:56:57;18.50;63.70
55828;DHT22;41758;51.992;5.890;2024-03-06T14:59:23;18.50;63.80
55828;DHT22;41758;51.992;5.890;2024-03-06T15:01:49;18.40;63.80
55828;DHT22;41758;51.992;5.890;2024-03-06T15:04:16;18.40;63.90
55828;DHT22;41758;51.992;5.890;2024-03-06T15:06:42;18.30;64.00
55828;DHT22;41758;51.992;5.890;2024-03-06T15:09:08;18.20;64.00
55828;DHT22;41758;51.992;5.890;2024-03-06T15:11:38;18.20;64.00
55828;DHT22;41758;51.992;5.890;2024-03-06T15:14:04;18.10;64.20
55828;DHT22;41758;51.992;5.890;2024-03-06T15:16:30;18.10;64.20
55828;DHT22;41758;51.992;5.890;2024-03-06T15:18:56;18.00;64.20
55828;DHT22;41758;51.992;5.890;2024-03-06T15:21:25;17.90;64.20
55828;DHT22;41758;51.992;5.890;2024-03-06T15:23:51;17.90;64.20
55828;DHT22;41758;51.992;5.890;2024-03-06T15:26:18;17.80;64.40
55828;DHT22;41758;51.992;5.890;2024-03-06T15:28:44;17.80;64.50
55828;DHT22;41758;51.992;5.890;2024-03-06T15:31:10;17.80;64.70
55828;DHT22;41758;51.992;5.890;2024-03-06T15:33:36;17.80;64.70
55828;DHT22;41758;51.992;5.890;2024-03-06T15:36:02;17.80;64.70
55828;DHT22;41758;51.992;5.890;2024-03-06T15:38:28;17.80;64.60